createdAt,value
2019-01-06T00:00:17.713Z,4.71
2019-01-06T00:01:17.702Z,4.68
2019-01-06T00:02:17.692Z,4.68
2019-01-06T00:03:17.677Z,4.65
2019-01-06T00:04:17.678Z,4.72
2019-01-06T00:05:17.655Z,4.68
2019-01-06T00:06:17.643Z,4.71
2019-01-06T00:07:17.647Z,4.69
2019-01-06T00:08:17.628Z,4.72
2019-01-06T00:09:17.612Z,4.64
2019-01-06T00:10:17.609Z,4.65
2019-01-06T00:11:17.591Z,4.65
2019-01-06T00:12:17.595Z,4.67
2019-01-06T00:13:17.576Z,4.62
2019-01-06T00:14:17.558Z,4.64
2019-01-06T00:15:17.549Z,4.67
2019-01-06T00:16:17.546Z,4.72
2019-01-06T00:17:17.539Z,4.68
2019-01-06T00:18:17.517Z,4.65
2019-01-06T00:19:17.511Z,4.69
2019-01-06T00:20:17.500Z,4.69
2019-01-06T00:21:17.488Z,4.64
2019-01-06T00:22:17.516Z,4.68
2019-01-06T00:23:17.462Z,4.69
2019-01-06T00:24:17.458Z,4.68
2019-01-06T00:25:17.447Z,4.65
2019-01-06T00:26:17.430Z,4.67
2019-01-06T00:27:17.421Z,4.69
2019-01-06T00:28:17.424Z,4.59
2019-01-06T00:29:17.398Z,4.56
2019-01-06T00:30:17.389Z,4.50
2019-01-06T00:31:17.379Z,4.62
2019-01-06T00:32:17.368Z,4.53
2019-01-06T00:33:17.406Z,4.56
2019-01-06T00:34:17.352Z,4.51
2019-01-06T00:35:24.968Z,4.54
2019-01-06T00:36:17.327Z,4.54
2019-01-06T00:37:17.316Z,4.50
2019-01-06T00:38:17.310Z,4.36
2019-01-06T00:39:17.330Z,4.35
2019-01-06T00:40:17.289Z,4.35
2019-01-06T00:41:17.272Z,4.31
2019-01-06T00:42:17.263Z,4.36
2019-01-06T00:43:17.258Z,4.38
2019-01-06T00:44:25.181Z,4.32
2019-01-06T00:45:24.397Z,4.49
2019-01-06T00:46:17.262Z,4.38
2019-01-06T00:47:17.210Z,4.36
2019-01-06T00:48:17.206Z,4.35
2019-01-06T00:49:17.189Z,4.21
2019-01-06T00:50:17.179Z,4.16
2019-01-06T00:51:17.167Z,4.11
2019-01-06T00:52:17.169Z,4.17
2019-01-06T00:53:17.150Z,4.16
2019-01-06T00:54:17.143Z,4.17
2019-01-06T00:55:17.128Z,4.06
2019-01-06T00:56:17.155Z,4.06
2019-01-06T00:57:17.105Z,4.07
2019-01-06T00:58:17.093Z,4.08
2019-01-06T00:59:17.084Z,3.96
2019-01-06T01:00:17.081Z,3.96
2019-01-06T01:01:17.063Z,3.96
2019-01-06T01:02:17.062Z,3.96
2019-01-06T01:03:17.047Z,4.02
2019-01-06T01:04:17.035Z,3.82
2019-01-06T01:05:17.030Z,3.92
2019-01-06T01:06:17.016Z,3.82
2019-01-06T01:07:17.007Z,3.82
2019-01-06T01:08:17.002Z,3.84
2019-01-06T01:09:16.985Z,3.86
2019-01-06T01:10:16.973Z,3.80
2019-01-06T01:11:16.964Z,3.84
2019-01-06T01:12:16.962Z,3.72
2019-01-06T01:13:16.936Z,3.75
2019-01-06T01:14:16.931Z,3.75
2019-01-06T01:15:16.920Z,3.74
2019-01-06T01:16:16.905Z,3.77
2019-01-06T01:17:16.905Z,3.81
2019-01-06T01:18:16.886Z,3.80
2019-01-06T01:19:16.873Z,3.70
2019-01-06T01:20:16.868Z,3.82
2019-01-06T01:21:16.851Z,3.70
2019-01-06T01:22:16.855Z,3.70
2019-01-06T01:23:16.832Z,3.77
2019-01-06T01:24:16.831Z,3.75
2019-01-06T01:25:16.823Z,3.67
2019-01-06T01:26:16.806Z,3.68
2019-01-06T01:27:16.813Z,3.64
2019-01-06T01:28:16.784Z,3.64
2019-01-06T01:29:16.781Z,3.59
2019-01-06T01:30:16.757Z,3.63
2019-01-06T01:31:16.747Z,3.60
2019-01-06T01:32:16.736Z,3.62
2019-01-06T01:33:16.743Z,3.64
2019-01-06T01:34:16.715Z,3.67
2019-01-06T01:35:16.710Z,3.53
2019-01-06T01:36:16.699Z,3.67
2019-01-06T01:37:16.719Z,3.64
2019-01-06T01:38:16.677Z,3.71
2019-01-06T01:39:16.668Z,3.72
2019-01-06T01:40:16.652Z,3.74
2019-01-06T01:41:16.643Z,3.71
2019-01-06T01:42:16.632Z,3.71
2019-01-06T01:43:16.632Z,3.74
2019-01-06T01:44:16.652Z,3.75
2019-01-06T01:45:16.606Z,3.78
2019-01-06T01:46:16.597Z,3.80
2019-01-06T01:47:16.579Z,3.75
2019-01-06T01:48:16.568Z,3.71
2019-01-06T01:49:16.563Z,3.75
2019-01-06T01:50:16.562Z,3.74
2019-01-06T01:51:16.540Z,3.71
2019-01-06T01:52:16.528Z,3.74
2019-01-06T01:53:16.520Z,3.70
2019-01-06T01:54:16.510Z,3.70
2019-01-06T01:55:16.506Z,3.64
2019-01-06T01:56:16.485Z,3.64
2019-01-06T01:57:16.478Z,3.60
2019-01-06T01:58:16.471Z,3.63
2019-01-06T01:59:16.456Z,3.59
2019-01-06T02:00:16.450Z,3.59
2019-01-06T02:01:16.441Z,3.60
2019-01-06T02:02:16.423Z,3.49
2019-01-06T02:03:16.443Z,3.49
2019-01-06T02:04:16.399Z,3.44
2019-01-06T02:05:16.393Z,3.45
2019-01-06T02:06:16.377Z,3.49
2019-01-06T02:07:16.372Z,3.49
2019-01-06T02:08:16.361Z,3.41
2019-01-06T02:09:16.356Z,3.45
2019-01-06T02:10:16.340Z,3.37
2019-01-06T02:11:16.339Z,3.46
2019-01-06T02:12:16.320Z,3.34
2019-01-06T02:13:16.305Z,3.42
2019-01-06T02:14:16.345Z,3.39
2019-01-06T02:15:16.287Z,3.30
2019-01-06T02:16:16.276Z,3.26
2019-01-06T02:17:16.268Z,3.39
2019-01-06T02:18:16.255Z,3.30
2019-01-06T02:19:16.244Z,3.35
2019-01-06T02:20:16.241Z,3.37
2019-01-06T02:21:16.218Z,3.30
2019-01-06T02:22:16.215Z,3.25
2019-01-06T02:23:16.205Z,3.26
2019-01-06T02:24:16.194Z,3.34
2019-01-06T02:25:16.175Z,3.39
2019-01-06T02:26:16.171Z,3.30
2019-01-06T02:27:16.168Z,3.28
2019-01-06T02:28:16.145Z,3.31
2019-01-06T02:29:16.134Z,3.33
2019-01-06T02:30:16.163Z,3.37
2019-01-06T02:31:16.119Z,3.33
2019-01-06T02:32:16.113Z,3.37
2019-01-06T02:33:16.096Z,3.41
2019-01-06T02:34:16.086Z,3.37
2019-01-06T02:35:16.076Z,3.28
2019-01-06T02:36:16.066Z,3.28
2019-01-06T02:37:16.054Z,3.39
2019-01-06T02:38:16.044Z,3.30
2019-01-06T02:39:16.044Z,3.34
2019-01-06T02:40:16.017Z,3.34
2019-01-06T02:41:16.013Z,3.39
2019-01-06T02:42:16.017Z,3.39
2019-01-06T02:43:15.990Z,3.45
2019-01-06T02:44:15.975Z,3.42
2019-01-06T02:45:15.968Z,3.39
2019-01-06T02:46:15.960Z,3.34
2019-01-06T02:47:15.976Z,3.39
2019-01-06T02:48:15.936Z,3.46
2019-01-06T02:49:15.927Z,3.45
2019-01-06T02:50:15.910Z,3.39
2019-01-06T02:51:15.905Z,3.35
2019-01-06T02:52:15.896Z,3.45
2019-01-06T02:53:15.894Z,3.37
2019-01-06T02:54:15.876Z,3.39
2019-01-06T02:55:15.862Z,3.42
2019-01-06T02:56:15.853Z,3.39
2019-01-06T02:57:15.911Z,3.45
2019-01-06T02:58:15.836Z,3.39
2019-01-06T02:59:15.818Z,3.44
2019-01-06T03:00:15.816Z,3.53
2019-01-06T03:01:15.804Z,3.42
2019-01-06T03:02:15.796Z,3.46
2019-01-06T03:03:15.800Z,3.49
2019-01-06T03:04:15.891Z,3.49
2019-01-06T03:05:15.756Z,3.45
2019-01-06T03:06:15.746Z,3.46
2019-01-06T03:07:15.734Z,3.44
2019-01-06T03:08:15.719Z,3.44
2019-01-06T03:09:15.825Z,3.44
2019-01-06T03:10:15.733Z,3.37
2019-01-06T03:11:15.689Z,3.46
2019-01-06T03:12:15.676Z,3.46
2019-01-06T03:13:15.673Z,3.45
2019-01-06T03:14:15.657Z,3.44
2019-01-06T03:15:15.647Z,3.46
2019-01-06T03:16:15.662Z,3.39
2019-01-06T03:17:15.629Z,3.41
2019-01-06T03:18:15.614Z,3.54
2019-01-06T03:19:15.607Z,3.45
2019-01-06T03:20:15.595Z,3.45
2019-01-06T03:21:15.587Z,3.50
2019-01-06T03:22:15.589Z,3.45
2019-01-06T03:23:15.566Z,3.52
2019-01-06T03:24:15.553Z,3.50
2019-01-06T03:25:15.539Z,3.39
2019-01-06T03:26:15.533Z,3.45
2019-01-06T03:27:15.519Z,3.45
2019-01-06T03:28:15.528Z,3.46
2019-01-06T03:29:15.496Z,3.52
2019-01-06T03:30:15.488Z,3.44
2019-01-06T03:31:15.484Z,3.46
2019-01-06T03:32:15.471Z,3.42
2019-01-06T03:33:15.457Z,3.37
2019-01-06T03:34:15.450Z,3.35
2019-01-06T03:35:15.437Z,3.34
2019-01-06T03:36:15.434Z,3.39
2019-01-06T03:37:15.419Z,3.39
2019-01-06T03:38:15.404Z,3.39
2019-01-06T03:39:15.395Z,3.37
2019-01-06T03:40:15.387Z,3.44
2019-01-06T03:41:15.408Z,3.42
2019-01-06T03:42:15.359Z,3.45
2019-01-06T03:43:15.347Z,3.46
2019-01-06T03:44:15.343Z,3.44
2019-01-06T03:45:15.333Z,3.46
2019-01-06T03:46:15.321Z,3.56
2019-01-06T03:47:15.319Z,3.45
2019-01-06T03:48:15.300Z,3.50
2019-01-06T03:49:15.284Z,3.54
2019-01-06T03:50:15.278Z,3.44
2019-01-06T03:51:15.269Z,3.53
2019-01-06T03:52:15.259Z,3.53
2019-01-06T03:53:15.242Z,3.60
2019-01-06T03:54:15.245Z,3.52
2019-01-06T03:55:15.222Z,3.71
2019-01-06T03:56:15.216Z,3.60
2019-01-06T03:57:15.203Z,3.60
2019-01-06T03:58:15.187Z,3.64
2019-01-06T03:59:15.209Z,3.62
2019-01-06T04:00:15.172Z,3.57
2019-01-06T04:01:15.156Z,3.63
2019-01-06T04:02:15.150Z,3.62
2019-01-06T04:03:15.145Z,3.63
2019-01-06T04:04:15.131Z,3.68
2019-01-06T04:05:15.122Z,3.67
2019-01-06T04:06:15.114Z,3.62
2019-01-06T04:07:15.098Z,3.64
2019-01-06T04:08:15.099Z,3.62
2019-01-06T04:09:15.074Z,3.56
2019-01-06T04:10:15.062Z,3.64
2019-01-06T04:11:15.583Z,3.54
2019-01-06T04:12:15.076Z,3.64
2019-01-06T04:13:15.035Z,3.68
2019-01-06T04:14:15.028Z,3.67
2019-01-06T04:15:15.018Z,3.62
2019-01-06T04:16:15.001Z,3.62
2019-01-06T04:17:14.990Z,3.57
2019-01-06T04:18:14.987Z,3.57
2019-01-06T04:19:14.973Z,3.62
2019-01-06T04:20:14.963Z,3.63
2019-01-06T04:21:14.952Z,3.64
2019-01-06T04:22:14.943Z,3.68
2019-01-06T04:23:14.942Z,3.63
2019-01-06T04:24:14.924Z,3.62
2019-01-06T04:25:14.904Z,3.64
2019-01-06T04:26:14.904Z,3.59
2019-01-06T04:27:14.888Z,3.62
2019-01-06T04:28:14.879Z,3.52
2019-01-06T04:29:14.865Z,3.59
2019-01-06T04:30:14.888Z,3.60
2019-01-06T04:31:14.848Z,3.59
2019-01-06T04:32:14.836Z,3.59
2019-01-06T04:33:14.828Z,3.50
2019-01-06T04:34:14.813Z,3.52
2019-01-06T04:35:14.801Z,3.42
2019-01-06T04:36:14.799Z,3.49
2019-01-06T04:37:14.779Z,3.49
2019-01-06T04:38:14.781Z,3.53
2019-01-06T04:39:14.759Z,3.54
2019-01-06T04:40:14.750Z,3.50
2019-01-06T04:41:14.776Z,3.50
2019-01-06T04:42:14.732Z,3.52
2019-01-06T04:43:14.714Z,3.54
2019-01-06T04:44:14.710Z,3.44
2019-01-06T04:45:14.699Z,3.45
2019-01-06T04:46:14.685Z,3.46
2019-01-06T04:47:14.681Z,3.49
2019-01-06T04:48:14.671Z,3.46
2019-01-06T04:49:14.663Z,3.62
2019-01-06T04:50:14.650Z,3.50
2019-01-06T04:51:14.631Z,3.53
2019-01-06T04:52:14.639Z,3.46
2019-01-06T04:53:14.623Z,3.56
2019-01-06T04:54:14.607Z,3.54
2019-01-06T04:55:14.590Z,3.53
2019-01-06T04:56:14.585Z,3.50
2019-01-06T04:57:14.573Z,3.54
2019-01-06T04:58:14.696Z,3.52
2019-01-06T04:59:14.552Z,3.44
2019-01-06T05:00:14.535Z,3.54
2019-01-06T05:01:14.532Z,3.57
2019-01-06T05:02:14.517Z,3.54
2019-01-06T05:03:15.876Z,3.54
2019-01-06T05:04:14.502Z,3.50
2019-01-06T05:05:14.488Z,3.52
2019-01-06T05:06:14.480Z,3.53
2019-01-06T05:07:14.474Z,3.45
2019-01-06T05:08:14.453Z,3.49
2019-01-06T05:09:14.456Z,3.41
2019-01-06T05:10:14.434Z,3.45
2019-01-06T05:11:14.421Z,3.42
2019-01-06T05:12:14.411Z,3.45
2019-01-06T05:13:14.404Z,3.44
2019-01-06T05:14:14.399Z,3.45
2019-01-06T05:15:14.378Z,3.50
2019-01-06T05:16:14.373Z,3.44
2019-01-06T05:17:14.360Z,3.42
2019-01-06T05:18:14.353Z,3.42
2019-01-06T05:19:14.369Z,3.33
2019-01-06T05:20:14.326Z,3.35
2019-01-06T05:21:14.322Z,3.42
2019-01-06T05:22:14.315Z,3.34
2019-01-06T05:23:14.303Z,3.33
2019-01-06T05:24:14.285Z,3.34
2019-01-06T05:25:14.303Z,3.31
2019-01-06T05:26:14.265Z,3.31
2019-01-06T05:27:14.255Z,3.33
2019-01-06T05:28:14.249Z,3.31
2019-01-06T05:29:14.235Z,3.30
2019-01-06T05:30:14.236Z,3.30
2019-01-06T05:31:14.226Z,3.33
2019-01-06T05:32:14.205Z,3.28
2019-01-06T05:33:14.191Z,3.26
2019-01-06T05:34:14.184Z,3.26
2019-01-06T05:35:14.168Z,3.30
2019-01-06T05:36:14.171Z,3.33
2019-01-06T05:37:14.159Z,3.23
2019-01-06T05:38:14.141Z,3.25
2019-01-06T05:39:14.127Z,3.16
2019-01-06T05:40:14.120Z,3.22
2019-01-06T05:41:14.112Z,3.23
2019-01-06T05:42:14.097Z,3.28
2019-01-06T05:43:14.085Z,3.20
2019-01-06T05:44:14.073Z,3.33
2019-01-06T05:45:14.068Z,3.30
2019-01-06T05:46:14.154Z,3.31
2019-01-06T05:47:14.043Z,3.30
2019-01-06T05:48:14.035Z,3.23
2019-01-06T05:49:14.026Z,3.19
2019-01-06T05:50:14.013Z,3.26
2019-01-06T05:51:14.010Z,3.26
2019-01-06T05:52:13.992Z,3.30
2019-01-06T05:53:13.984Z,3.28
2019-01-06T05:54:13.979Z,3.28
2019-01-06T05:55:13.965Z,3.28
2019-01-06T05:56:13.959Z,3.31
2019-01-06T05:57:13.940Z,3.41
2019-01-06T05:58:13.925Z,3.26
2019-01-06T05:59:13.915Z,3.28
2019-01-06T06:00:13.913Z,3.33
2019-01-06T06:01:13.903Z,3.35
2019-01-06T06:02:13.891Z,3.33
2019-01-06T06:03:13.879Z,3.35
2019-01-06T06:04:13.870Z,3.37
2019-01-06T06:05:13.851Z,3.28
2019-01-06T06:06:13.839Z,3.28
2019-01-06T06:07:13.838Z,3.30
2019-01-06T06:08:13.818Z,3.33
2019-01-06T06:09:13.807Z,3.30
2019-01-06T06:10:13.801Z,3.41
2019-01-06T06:11:13.785Z,3.30
2019-01-06T06:12:13.812Z,3.30
2019-01-06T06:13:13.767Z,3.28
2019-01-06T06:14:13.754Z,3.35
2019-01-06T06:15:13.743Z,3.28
2019-01-06T06:16:13.739Z,3.34
2019-01-06T06:17:13.728Z,3.30
2019-01-06T06:18:13.760Z,3.31
2019-01-06T06:19:13.701Z,3.23
2019-01-06T06:20:13.690Z,3.28
2019-01-06T06:21:13.682Z,3.26
2019-01-06T06:22:13.669Z,3.23
2019-01-06T06:23:13.678Z,3.25
2019-01-06T06:24:13.692Z,3.15
2019-01-06T06:25:13.648Z,3.20
2019-01-06T06:26:13.632Z,3.26
2019-01-06T06:27:13.616Z,3.30
2019-01-06T06:28:13.605Z,3.26
2019-01-06T06:29:13.602Z,3.13
2019-01-06T06:30:13.594Z,3.30
2019-01-06T06:31:13.580Z,3.28
2019-01-06T06:32:13.569Z,3.28
2019-01-06T06:33:13.581Z,3.33
2019-01-06T06:34:13.548Z,3.30
2019-01-06T06:35:13.533Z,3.26
2019-01-06T06:36:13.519Z,3.22
2019-01-06T06:37:13.515Z,3.25
2019-01-06T06:38:13.500Z,3.23
2019-01-06T06:39:13.506Z,3.34
2019-01-06T06:40:13.495Z,3.23
2019-01-06T06:41:13.472Z,3.28
2019-01-06T06:42:13.472Z,3.26
2019-01-06T06:43:13.461Z,3.26
2019-01-06T06:44:13.447Z,3.25
2019-01-06T06:45:13.431Z,3.37
2019-01-06T06:46:13.420Z,3.30
2019-01-06T06:47:13.409Z,3.34
2019-01-06T06:48:13.399Z,3.26
2019-01-06T06:49:13.394Z,3.30
2019-01-06T06:50:13.382Z,3.16
2019-01-06T06:51:13.367Z,3.25
2019-01-06T06:52:13.351Z,3.34
2019-01-06T06:53:13.343Z,3.25
2019-01-06T06:54:13.355Z,3.23
2019-01-06T06:55:13.320Z,3.28
2019-01-06T06:56:13.310Z,3.23
2019-01-06T06:57:13.303Z,3.22
2019-01-06T06:58:13.290Z,3.34
2019-01-06T06:59:13.277Z,3.26
2019-01-06T07:00:13.278Z,3.20
2019-01-06T07:01:13.261Z,3.34
2019-01-06T07:02:13.252Z,3.34
2019-01-06T07:03:13.238Z,3.35
2019-01-06T07:04:13.227Z,3.34
2019-01-06T07:05:13.232Z,3.26
2019-01-06T07:06:13.265Z,3.30
2019-01-06T07:07:13.194Z,3.37
2019-01-06T07:08:13.182Z,3.25
2019-01-06T07:09:13.179Z,3.35
2019-01-06T07:10:13.161Z,3.31
2019-01-06T07:11:13.150Z,3.44
2019-01-06T07:12:13.149Z,3.42
2019-01-06T07:13:13.128Z,3.44
2019-01-06T07:14:13.123Z,3.37
2019-01-06T07:15:13.114Z,3.39
2019-01-06T07:16:13.108Z,3.23
2019-01-06T07:17:13.098Z,3.41
2019-01-06T07:18:13.075Z,3.35
2019-01-06T07:19:13.076Z,3.35
2019-01-06T07:20:13.057Z,3.39
2019-01-06T07:21:13.044Z,3.28
2019-01-06T07:22:13.039Z,3.35
2019-01-06T07:23:13.083Z,3.23
2019-01-06T07:24:13.020Z,3.31
2019-01-06T07:25:13.002Z,3.41
2019-01-06T07:26:12.996Z,3.30
2019-01-06T07:27:12.981Z,3.30
2019-01-06T07:28:12.980Z,3.33
2019-01-06T07:29:12.997Z,3.28
2019-01-06T07:30:12.950Z,3.28
2019-01-06T07:31:12.940Z,3.39
2019-01-06T07:32:12.928Z,3.44
2019-01-06T07:33:12.924Z,3.34
2019-01-06T07:34:12.907Z,3.30
2019-01-06T07:35:12.907Z,3.37
2019-01-06T07:36:12.905Z,3.37
2019-01-06T07:37:12.881Z,3.35
2019-01-06T07:38:12.867Z,3.35
2019-01-06T07:39:12.856Z,3.35
2019-01-06T07:40:12.845Z,3.35
2019-01-06T07:41:12.898Z,3.46
2019-01-06T07:42:12.823Z,3.45
2019-01-06T07:43:12.817Z,3.45
2019-01-06T07:44:12.807Z,3.50
2019-01-06T07:45:12.795Z,3.44
2019-01-06T07:46:12.780Z,3.45
2019-01-06T07:47:12.784Z,3.41
2019-01-06T07:48:12.765Z,3.45
2019-01-06T07:49:12.749Z,3.46
2019-01-06T07:50:12.746Z,3.49
2019-01-06T07:51:12.816Z,3.44
2019-01-06T07:52:12.722Z,3.46
2019-01-06T07:53:12.713Z,3.52
2019-01-06T07:54:12.704Z,3.42
2019-01-06T07:55:12.698Z,3.50
2019-01-06T07:56:12.678Z,3.46
2019-01-06T07:57:12.670Z,3.44
2019-01-06T07:58:12.656Z,3.56
2019-01-06T07:59:12.649Z,3.54
2019-01-06T08:00:15.407Z,3.50
2019-01-06T08:01:12.625Z,3.50
2019-01-06T08:02:12.612Z,3.53
2019-01-06T08:03:12.602Z,3.57
2019-01-06T08:04:12.599Z,3.53
2019-01-06T08:05:12.581Z,3.56
2019-01-06T08:06:12.581Z,3.53
2019-01-06T08:07:12.560Z,3.52
2019-01-06T08:08:12.556Z,3.60
2019-01-06T08:09:12.543Z,3.63
2019-01-06T08:10:12.534Z,3.62
2019-01-06T08:11:12.527Z,3.63
2019-01-06T08:12:12.506Z,3.68
2019-01-06T08:13:12.496Z,3.62
2019-01-06T08:14:12.498Z,3.64
2019-01-06T08:15:12.479Z,3.64
2019-01-06T08:16:12.493Z,3.68
2019-01-06T08:17:12.462Z,3.74
2019-01-06T08:18:12.454Z,3.84
2019-01-06T08:19:12.435Z,3.72
2019-01-06T08:20:12.458Z,3.77
2019-01-06T08:21:12.414Z,3.82
2019-01-06T08:22:12.407Z,3.82
2019-01-06T08:23:12.396Z,3.88
2019-01-06T08:24:12.381Z,3.77
2019-01-06T08:25:12.370Z,3.95
2019-01-06T08:26:12.399Z,3.86
2019-01-06T08:27:12.353Z,3.95
2019-01-06T08:28:12.343Z,3.95
2019-01-06T08:29:12.334Z,4.02
2019-01-06T08:30:12.320Z,4.08
2019-01-06T08:31:12.310Z,3.99
2019-01-06T08:32:12.309Z,4.06
2019-01-06T08:33:12.287Z,4.04
2019-01-06T08:34:12.279Z,4.08
2019-01-06T08:35:12.271Z,4.08
2019-01-06T08:36:12.254Z,4.14
2019-01-06T08:37:12.330Z,4.07
2019-01-06T08:38:12.245Z,4.14
2019-01-06T08:39:12.223Z,4.14
2019-01-06T08:40:12.211Z,4.21
2019-01-06T08:41:12.202Z,4.13
2019-01-06T08:42:12.190Z,4.08
2019-01-06T08:43:12.210Z,4.11
2019-01-06T08:44:12.168Z,4.17
2019-01-06T08:45:12.158Z,4.21
2019-01-06T08:46:12.148Z,4.07
2019-01-06T08:47:12.142Z,4.20
2019-01-06T08:48:12.130Z,4.14
2019-01-06T08:49:12.171Z,4.26
2019-01-06T08:50:12.105Z,4.20
2019-01-06T08:51:12.094Z,4.20
2019-01-06T08:52:12.088Z,4.14
2019-01-06T08:53:12.074Z,4.20
2019-01-06T08:54:12.062Z,4.28
2019-01-06T08:55:12.065Z,4.28
2019-01-06T08:56:12.041Z,4.28
2019-01-06T08:57:12.029Z,4.28
2019-01-06T08:58:12.027Z,4.21
2019-01-06T08:59:12.011Z,4.25
2019-01-06T09:00:12.010Z,4.21
2019-01-06T09:01:11.993Z,4.29
2019-01-06T09:02:11.984Z,4.26
2019-01-06T09:03:11.968Z,4.32
2019-01-06T09:04:11.958Z,4.28
2019-01-06T09:05:11.987Z,4.35
2019-01-06T09:06:11.940Z,4.42
2019-01-06T09:07:11.923Z,4.36
2019-01-06T09:08:11.920Z,4.47
2019-01-06T09:09:11.908Z,4.42
2019-01-06T09:10:11.900Z,4.44
2019-01-06T09:11:11.891Z,4.32
2019-01-06T09:12:11.880Z,4.36
2019-01-06T09:13:11.861Z,4.36
2019-01-06T09:14:11.859Z,4.42
2019-01-06T09:15:11.846Z,4.38
2019-01-06T09:16:11.839Z,4.35
2019-01-06T09:17:11.826Z,4.46
2019-01-06T09:18:11.811Z,4.50
2019-01-06T09:19:11.800Z,4.54
2019-01-06T09:20:11.793Z,4.57
2019-01-06T09:21:11.795Z,4.59
2019-01-06T09:22:11.788Z,4.54
2019-01-06T09:23:11.757Z,4.59
2019-01-06T09:24:11.751Z,4.62
2019-01-06T09:25:11.742Z,4.65
2019-01-06T09:26:11.731Z,4.62
2019-01-06T09:27:11.729Z,4.64
2019-01-06T09:28:11.711Z,4.57
2019-01-06T09:29:11.699Z,4.59
2019-01-06T09:30:11.689Z,4.57
2019-01-06T09:31:11.675Z,4.68
2019-01-06T09:32:11.673Z,4.64
2019-01-06T09:33:11.662Z,4.65
2019-01-06T09:34:11.647Z,4.62
2019-01-06T09:35:11.782Z,4.67
2019-01-06T09:36:11.621Z,4.65
2019-01-06T09:37:11.611Z,4.72
2019-01-06T09:38:11.605Z,4.69
2019-01-06T09:39:11.600Z,4.68
2019-01-06T09:40:11.584Z,4.64
2019-01-06T09:41:11.573Z,4.74
2019-01-06T09:42:11.559Z,4.65
2019-01-06T09:43:11.552Z,4.68
2019-01-06T09:44:11.545Z,4.62
2019-01-06T09:45:11.535Z,4.61
2019-01-06T09:46:11.520Z,4.57
2019-01-06T09:47:11.512Z,4.64
2019-01-06T09:48:11.494Z,4.65
2019-01-06T09:49:11.497Z,4.65
2019-01-06T09:50:11.479Z,4.67
2019-01-06T09:51:11.464Z,4.68
2019-01-06T09:52:11.491Z,4.71
2019-01-06T09:53:11.442Z,4.71
2019-01-06T09:54:11.430Z,4.68
2019-01-06T09:55:11.421Z,4.79
2019-01-06T09:56:11.411Z,4.74
2019-01-06T09:57:12.111Z,4.75
2019-01-06T09:58:11.405Z,4.90
2019-01-06T09:59:11.382Z,4.91
2019-01-06T10:00:11.374Z,4.94
2019-01-06T10:01:11.355Z,4.97
2019-01-06T10:02:11.348Z,4.90
2019-01-06T10:03:11.342Z,4.86
2019-01-06T10:04:11.326Z,4.87
2019-01-06T10:05:11.325Z,4.90
2019-01-06T10:06:11.308Z,4.90
2019-01-06T10:07:11.300Z,4.90
2019-01-06T10:08:11.288Z,4.91
2019-01-06T10:09:11.275Z,4.94
2019-01-06T10:10:11.271Z,4.94
2019-01-06T10:11:11.249Z,4.90
2019-01-06T10:12:11.245Z,5.04
2019-01-06T10:13:11.227Z,5.02
2019-01-06T10:14:11.215Z,5.09
2019-01-06T10:15:11.221Z,5.09
2019-01-06T10:16:11.197Z,5.09
2019-01-06T10:17:11.188Z,5.19
2019-01-06T10:18:11.182Z,5.20
2019-01-06T10:19:11.163Z,5.19
2019-01-06T10:20:11.163Z,5.11
2019-01-06T10:21:11.160Z,5.09
2019-01-06T10:22:11.135Z,5.06
2019-01-06T10:23:11.125Z,5.09
2019-01-06T10:24:11.112Z,5.01
2019-01-06T10:25:11.100Z,5.04
2019-01-06T10:26:11.102Z,5.05
2019-01-06T10:27:11.083Z,4.97
2019-01-06T10:28:11.074Z,5.11
2019-01-06T10:29:11.062Z,5.15
2019-01-06T10:30:11.045Z,5.14
2019-01-06T10:31:11.077Z,5.17
2019-01-06T10:32:11.039Z,5.22
2019-01-06T10:33:11.019Z,5.23
2019-01-06T10:34:11.005Z,5.23
2019-01-06T10:35:10.999Z,5.20
2019-01-06T10:36:10.985Z,5.24
2019-01-06T10:37:11.003Z,5.24
2019-01-06T10:38:10.965Z,5.29
2019-01-06T10:39:10.949Z,5.27
2019-01-06T10:40:10.936Z,5.35
2019-01-06T10:41:10.931Z,5.35
2019-01-06T10:42:10.921Z,5.60
2019-01-06T10:43:11.021Z,5.84
2019-01-06T10:44:10.897Z,5.95
2019-01-06T10:45:10.883Z,6.10
2019-01-06T10:46:10.878Z,6.05
2019-01-06T10:47:10.863Z,6.03
2019-01-06T10:48:10.861Z,6.03
2019-01-06T10:49:10.841Z,6.06
2019-01-06T10:50:10.840Z,6.16
2019-01-06T10:51:10.827Z,6.08
2019-01-06T10:52:10.824Z,6.17
2019-01-06T10:53:10.799Z,6.17
2019-01-06T10:54:10.828Z,6.27
2019-01-06T10:55:10.788Z,6.21
2019-01-06T10:56:10.766Z,6.27
2019-01-06T10:57:11.936Z,6.16
2019-01-06T10:58:10.747Z,6.20
2019-01-06T10:59:10.740Z,6.10
2019-01-06T11:00:10.733Z,6.13
2019-01-06T11:01:10.713Z,6.10
2019-01-06T11:02:10.707Z,6.05
2019-01-06T11:03:10.696Z,5.90
2019-01-06T11:04:10.686Z,5.90
2019-01-06T11:05:10.684Z,5.85
2019-01-06T11:06:10.660Z,5.77
2019-01-06T11:07:10.663Z,5.78
2019-01-06T11:08:10.645Z,5.80
2019-01-06T11:09:10.632Z,5.75
2019-01-06T11:10:10.661Z,5.77
2019-01-06T11:11:10.606Z,5.67
2019-01-06T11:12:10.598Z,5.69
2019-01-06T11:13:10.593Z,5.70
2019-01-06T11:14:10.575Z,5.65
2019-01-06T11:15:10.565Z,5.73
2019-01-06T11:16:10.563Z,5.65
2019-01-06T11:17:10.543Z,5.75
2019-01-06T11:18:10.534Z,5.70
2019-01-06T11:19:10.522Z,5.65
2019-01-06T11:20:10.516Z,5.70
2019-01-06T11:21:10.511Z,5.63
2019-01-06T11:22:10.497Z,5.67
2019-01-06T11:23:10.488Z,5.70
2019-01-06T11:24:10.471Z,5.73
2019-01-06T11:25:10.463Z,5.75
2019-01-06T11:26:10.508Z,5.70
2019-01-06T11:27:10.442Z,5.63
2019-01-06T11:28:13.007Z,5.74
2019-01-06T11:29:10.417Z,5.78
2019-01-06T11:30:10.406Z,5.83
2019-01-06T11:31:10.394Z,5.77
2019-01-06T11:32:10.404Z,5.78
2019-01-06T11:33:10.379Z,5.84
2019-01-06T11:34:10.363Z,5.92
2019-01-06T11:35:10.359Z,5.85
2019-01-06T11:36:10.355Z,5.93
2019-01-06T11:37:10.339Z,5.92
2019-01-06T11:38:10.321Z,5.87
2019-01-06T11:39:10.316Z,5.85
2019-01-06T11:40:10.303Z,5.93
2019-01-06T11:41:10.294Z,5.87
2019-01-06T11:42:10.322Z,5.87
2019-01-06T11:43:10.267Z,5.96
2019-01-06T11:44:10.260Z,5.98
2019-01-06T11:45:10.254Z,5.80
2019-01-06T11:46:10.235Z,5.83
2019-01-06T11:47:10.231Z,5.87
2019-01-06T11:48:10.225Z,5.81
2019-01-06T11:49:10.217Z,5.81
2019-01-06T11:50:10.194Z,5.78
2019-01-06T11:51:10.183Z,5.84
2019-01-06T11:52:10.177Z,5.85
2019-01-06T11:53:10.170Z,5.81
2019-01-06T11:54:10.158Z,5.90
2019-01-06T11:55:10.145Z,5.87
2019-01-06T11:56:10.136Z,5.87
2019-01-06T11:57:10.125Z,5.83
2019-01-06T11:58:10.125Z,5.92
2019-01-06T11:59:10.104Z,5.93
2019-01-06T12:00:10.090Z,5.93
2019-01-06T12:01:10.081Z,5.85
2019-01-06T12:02:10.066Z,5.88
2019-01-06T12:03:10.056Z,5.88
2019-01-06T12:04:10.053Z,5.88
2019-01-06T12:05:10.043Z,5.84
2019-01-06T12:06:10.022Z,5.84
2019-01-06T12:07:10.013Z,5.84
2019-01-06T12:08:10.003Z,5.80
2019-01-06T12:09:10.045Z,5.80
2019-01-06T12:10:09.986Z,5.70
2019-01-06T12:11:09.969Z,5.75
2019-01-06T12:12:09.984Z,5.77
2019-01-06T12:13:09.956Z,5.80
2019-01-06T12:14:09.944Z,5.77
2019-01-06T12:15:09.936Z,5.78
2019-01-06T12:16:09.920Z,5.81
2019-01-06T12:17:09.924Z,5.80
2019-01-06T12:18:09.896Z,5.87
2019-01-06T12:19:09.931Z,5.90
2019-01-06T12:20:09.875Z,5.98
2019-01-06T12:21:09.872Z,5.93
2019-01-06T12:22:09.853Z,6.19
2019-01-06T12:23:09.847Z,6.42
2019-01-06T12:24:09.839Z,6.40
2019-01-06T12:25:09.839Z,6.39
2019-01-06T12:26:09.812Z,6.38
2019-01-06T12:27:09.801Z,6.21
2019-01-06T12:28:09.799Z,6.24
2019-01-06T12:29:09.782Z,6.20
2019-01-06T12:30:09.793Z,6.21
2019-01-06T12:31:09.764Z,6.11
2019-01-06T12:32:09.754Z,6.25
2019-01-06T12:33:09.746Z,6.33
2019-01-06T12:34:09.731Z,6.35
2019-01-06T12:35:09.746Z,6.33
2019-01-06T12:36:09.706Z,6.30
2019-01-06T12:37:09.694Z,6.16
2019-01-06T12:38:09.688Z,6.13
2019-01-06T12:39:09.673Z,6.14
2019-01-06T12:40:09.662Z,6.05
2019-01-06T12:41:09.663Z,5.96
2019-01-06T12:42:09.641Z,5.98
2019-01-06T12:43:09.648Z,5.87
2019-01-06T12:44:09.624Z,5.93
2019-01-06T12:45:09.610Z,5.85
2019-01-06T12:46:09.607Z,5.84
2019-01-06T12:47:09.588Z,5.75
2019-01-06T12:48:09.583Z,5.78
2019-01-06T12:49:09.595Z,5.73
2019-01-06T12:50:09.566Z,5.65
2019-01-06T12:51:09.554Z,5.62
2019-01-06T12:52:09.541Z,5.59
2019-01-06T12:53:09.527Z,5.55
2019-01-06T12:54:09.514Z,5.47
2019-01-06T12:55:17.550Z,5.60
2019-01-06T12:56:09.507Z,5.51
2019-01-06T12:57:09.507Z,5.49
2019-01-06T12:58:09.471Z,5.52
2019-01-06T12:59:09.500Z,5.55
2019-01-06T13:00:09.458Z,5.49
2019-01-06T13:01:09.451Z,5.42
2019-01-06T13:02:09.427Z,5.35
2019-01-06T13:03:09.424Z,5.40
2019-01-06T13:04:09.412Z,5.38
2019-01-06T13:05:09.424Z,5.40
2019-01-06T13:06:09.384Z,5.42
2019-01-06T13:07:09.377Z,5.32
2019-01-06T13:08:09.403Z,5.41
2019-01-06T13:09:09.360Z,5.42
2019-01-06T13:10:09.357Z,5.40
2019-01-06T13:11:09.338Z,5.41
2019-01-06T13:12:09.320Z,5.47
2019-01-06T13:13:09.315Z,5.45
2019-01-06T13:14:09.346Z,5.38
2019-01-06T13:15:09.333Z,5.41
2019-01-06T13:16:09.283Z,5.24
2019-01-06T13:17:09.273Z,5.27
2019-01-06T13:18:09.264Z,5.33